createdAt,value
2022-10-04T00:00:37.634Z,1016.24
2022-10-04T00:01:37.749Z,1016.22
2022-10-04T00:02:37.632Z,1016.24
2022-10-04T00:03:37.637Z,1016.23
2022-10-04T00:04:37.600Z,1016.20
2022-10-04T00:05:37.595Z,1016.18
2022-10-04T00:06:37.742Z,1016.21
2022-10-04T00:07:37.533Z,1016.13
2022-10-04T00:08:37.545Z,1016.11
2022-10-04T00:09:37.591Z,1016.08
2022-10-04T00:10:37.523Z,1016.06
2022-10-04T00:11:37.546Z,1016.00
2022-10-04T00:12:37.605Z,1015.97
2022-10-04T00:13:37.481Z,1015.98
2022-10-04T00:14:37.514Z,1015.95
2022-10-04T00:15:37.515Z,1015.95
2022-10-04T00:16:37.508Z,1015.99
2022-10-04T00:17:37.443Z,1016.03
2022-10-04T00:18:37.474Z,1016.06
2022-10-04T00:19:37.404Z,1016.04
2022-10-04T00:20:37.499Z,1016.00
2022-10-04T00:21:37.434Z,1015.97
2022-10-04T00:22:37.431Z,1015.92
2022-10-04T00:23:37.429Z,1015.92
2022-10-04T00:24:37.409Z,1015.90
2022-10-04T00:25:37.365Z,1015.88
2022-10-04T00:26:37.405Z,1015.89
2022-10-04T00:27:37.334Z,1015.89
2022-10-04T00:28:37.316Z,1015.82
2022-10-04T00:29:37.301Z,1015.91
2022-10-04T00:30:37.310Z,1015.96
2022-10-04T00:31:37.403Z,1015.97
2022-10-04T00:32:37.258Z,1015.96
2022-10-04T00:33:37.250Z,1015.95
2022-10-04T00:34:37.280Z,1015.91
2022-10-04T00:35:37.288Z,1015.91
2022-10-04T00:36:37.329Z,1015.93
2022-10-04T00:37:37.259Z,1015.94
2022-10-04T00:38:37.239Z,1015.85
2022-10-04T00:39:37.202Z,1015.85
2022-10-04T00:40:37.225Z,1015.86
2022-10-04T00:41:37.195Z,1015.83
2022-10-04T00:42:37.143Z,1015.82
2022-10-04T00:43:37.179Z,1015.73
2022-10-04T00:44:37.125Z,1015.68
2022-10-04T00:45:37.145Z,1015.67
2022-10-04T00:46:37.315Z,1015.66
2022-10-04T00:47:37.128Z,1015.67
2022-10-04T00:48:37.130Z,1015.70
2022-10-04T00:49:37.072Z,1015.71
2022-10-04T00:50:37.055Z,1015.69
2022-10-04T00:51:37.115Z,1015.66
2022-10-04T00:52:37.077Z,1015.68
2022-10-04T00:53:37.072Z,1015.66
2022-10-04T00:54:37.007Z,1015.69
2022-10-04T00:55:37.000Z,1015.66
2022-10-04T00:56:37.052Z,1015.65
2022-10-04T00:57:37.041Z,1015.66
2022-10-04T00:58:36.979Z,1015.68
2022-10-04T00:59:37.002Z,1015.66
2022-10-04T01:00:36.983Z,1015.70
2022-10-04T01:01:37.193Z,1015.72
2022-10-04T01:02:37.059Z,1015.71
2022-10-04T01:03:36.938Z,1015.70
2022-10-04T01:04:36.913Z,1015.71
2022-10-04T01:05:36.897Z,1015.71
2022-10-04T01:06:36.994Z,1015.71
2022-10-04T01:07:36.897Z,1015.70
2022-10-04T01:08:36.897Z,1015.69
2022-10-04T01:09:36.865Z,1015.69
2022-10-04T01:10:36.847Z,1015.63
2022-10-04T01:11:36.902Z,1015.66
2022-10-04T01:12:36.852Z,1015.68
2022-10-04T01:13:36.797Z,1015.68
2022-10-04T01:14:36.827Z,1015.72
2022-10-04T01:15:36.843Z,1015.66
2022-10-04T01:16:36.901Z,1015.66
2022-10-04T01:17:36.781Z,1015.68
2022-10-04T01:18:36.792Z,1015.62
2022-10-04T01:19:36.795Z,1015.64
2022-10-04T01:20:36.765Z,1015.62
2022-10-04T01:21:36.820Z,1015.61
2022-10-04T01:22:36.691Z,1015.58
2022-10-04T01:23:36.694Z,1015.57
2022-10-04T01:24:36.713Z,1015.54
2022-10-04T01:25:36.668Z,1015.54
2022-10-04T01:26:36.708Z,1015.51
2022-10-04T01:27:36.665Z,1015.52
2022-10-04T01:28:36.721Z,1015.48
2022-10-04T01:29:36.650Z,1015.54
2022-10-04T01:30:36.632Z,1015.48
2022-10-04T01:31:36.650Z,1015.49
2022-10-04T01:32:36.630Z,1015.47
2022-10-04T01:33:36.612Z,1015.42
2022-10-04T01:34:36.617Z,1015.40
2022-10-04T01:35:36.548Z,1015.39
2022-10-04T01:36:36.559Z,1015.36
2022-10-04T01:37:36.570Z,1015.33
2022-10-04T01:38:36.537Z,1015.28
2022-10-04T01:39:36.508Z,1015.26
2022-10-04T01:40:36.478Z,1015.26
2022-10-04T01:41:36.509Z,1015.20
2022-10-04T01:42:36.501Z,1015.20
2022-10-04T01:43:36.460Z,1015.27
2022-10-04T01:44:36.452Z,1015.22
2022-10-04T01:45:36.518Z,1015.23
2022-10-04T01:46:36.585Z,1015.25
2022-10-04T01:47:36.534Z,1015.19
2022-10-04T01:48:36.432Z,1015.23
2022-10-04T01:49:36.421Z,1015.19
2022-10-04T01:50:36.469Z,1015.25
2022-10-04T01:51:36.402Z,1015.25
2022-10-04T01:52:36.378Z,1015.24
2022-10-04T01:53:36.365Z,1015.25
2022-10-04T01:54:36.363Z,1015.22
2022-10-04T01:55:36.357Z,1015.20
2022-10-04T01:56:36.362Z,1015.18
2022-10-04T01:57:36.330Z,1015.24
2022-10-04T01:58:36.329Z,1015.27
2022-10-04T01:59:36.287Z,1015.22
2022-10-04T02:00:36.291Z,1015.28
2022-10-04T02:01:36.331Z,1015.24
2022-10-04T02:02:36.248Z,1015.23
2022-10-04T02:03:36.324Z,1015.21
2022-10-04T02:04:36.212Z,1015.13
2022-10-04T02:05:36.254Z,1015.12
2022-10-04T02:06:36.265Z,1015.10
2022-10-04T02:07:36.274Z,1015.04
2022-10-04T02:08:36.211Z,1015.06
2022-10-04T02:09:36.208Z,1015.04
2022-10-04T02:10:39.731Z,1015.07
2022-10-04T02:11:36.162Z,1015.06
2022-10-04T02:12:36.170Z,1015.06
2022-10-04T02:13:36.146Z,1014.94
2022-10-04T02:14:36.133Z,1014.97
2022-10-04T02:15:36.360Z,1015.02
2022-10-04T02:16:36.164Z,1015.00
2022-10-04T02:17:36.155Z,1014.99
2022-10-04T02:18:36.063Z,1015.01
2022-10-04T02:19:36.099Z,1014.97
2022-10-04T02:20:36.034Z,1014.97
2022-10-04T02:21:36.034Z,1014.95
2022-10-04T02:22:36.100Z,1014.97
2022-10-04T02:23:36.016Z,1014.95
2022-10-04T02:24:36.089Z,1014.95
2022-10-04T02:25:36.018Z,1014.91
2022-10-04T02:26:36.008Z,1014.90
2022-10-04T02:27:36.005Z,1014.90
2022-10-04T02:28:36.006Z,1014.88
2022-10-04T02:29:35.966Z,1014.88
2022-10-04T02:30:35.922Z,1014.87
2022-10-04T02:31:36.068Z,1014.85
2022-10-04T02:32:35.908Z,1014.90
2022-10-04T02:33:35.924Z,1014.88
2022-10-04T02:34:35.925Z,1014.88
2022-10-04T02:35:35.956Z,1014.87
2022-10-04T02:36:35.881Z,1014.84
2022-10-04T02:37:35.874Z,1014.83
2022-10-04T02:38:35.846Z,1014.78
2022-10-04T02:39:35.835Z,1014.76
2022-10-04T02:40:35.834Z,1014.77
2022-10-04T02:41:35.833Z,1014.77
2022-10-04T02:42:35.820Z,1014.76
2022-10-04T02:43:35.802Z,1014.73
2022-10-04T02:44:35.773Z,1014.76
2022-10-04T02:45:35.762Z,1014.75
2022-10-04T02:46:35.885Z,1014.75
2022-10-04T02:47:35.776Z,1014.77
2022-10-04T02:48:35.744Z,1014.80
2022-10-04T02:49:35.736Z,1014.75
2022-10-04T02:50:35.722Z,1014.77
2022-10-04T02:51:35.710Z,1014.75
2022-10-04T02:52:35.723Z,1014.82
2022-10-04T02:53:35.711Z,1014.80
2022-10-04T02:54:35.657Z,1014.89
2022-10-04T02:55:35.676Z,1014.83
2022-10-04T02:56:35.634Z,1014.85
2022-10-04T02:57:35.690Z,1014.81
2022-10-04T02:58:35.636Z,1014.74
2022-10-04T02:59:35.799Z,1014.78
2022-10-04T03:00:35.640Z,1014.75
2022-10-04T03:01:35.584Z,1014.71
2022-10-04T03:02:35.670Z,1014.73
2022-10-04T03:03:35.573Z,1014.69
2022-10-04T03:04:35.549Z,1014.72
2022-10-04T03:05:35.576Z,1014.72
2022-10-04T03:06:35.559Z,1014.79
2022-10-04T03:07:35.602Z,1014.73
2022-10-04T03:08:35.519Z,1014.71
2022-10-04T03:09:35.484Z,1014.69
2022-10-04T03:10:35.452Z,1014.72
2022-10-04T03:11:35.492Z,1014.67
2022-10-04T03:12:35.497Z,1014.67
2022-10-04T03:13:35.494Z,1014.72
2022-10-04T03:14:35.452Z,1014.69
2022-10-04T03:15:35.429Z,1014.66
2022-10-04T03:16:35.546Z,1014.69
2022-10-04T03:17:35.486Z,1014.62
2022-10-04T03:18:35.392Z,1014.65
2022-10-04T03:19:35.404Z,1014.65
2022-10-04T03:20:35.367Z,1014.69
2022-10-04T03:21:35.370Z,1014.67
2022-10-04T03:22:35.405Z,1014.62
2022-10-04T03:23:35.354Z,1014.61
2022-10-04T03:24:35.341Z,1014.64
2022-10-04T03:25:35.305Z,1014.63
2022-10-04T03:26:35.294Z,1014.62
2022-10-04T03:27:35.332Z,1014.64
2022-10-04T03:28:35.305Z,1014.62
2022-10-04T03:29:35.260Z,1014.60
2022-10-04T03:30:35.278Z,1014.61
2022-10-04T03:31:35.369Z,1014.54
2022-10-04T03:32:35.293Z,1014.52
2022-10-04T03:33:35.269Z,1014.48
2022-10-04T03:34:35.209Z,1014.50
2022-10-04T03:35:35.230Z,1014.46
2022-10-04T03:36:35.188Z,1014.48
2022-10-04T03:37:35.184Z,1014.46
2022-10-04T03:38:35.154Z,1014.51
2022-10-04T03:39:35.162Z,1014.48
2022-10-04T03:40:35.137Z,1014.50
2022-10-04T03:41:35.150Z,1014.51
2022-10-04T03:42:35.131Z,1014.46
2022-10-04T03:43:35.140Z,1014.44
2022-10-04T03:44:35.115Z,1014.48
2022-10-04T03:45:35.313Z,1014.43
2022-10-04T03:46:35.064Z,1014.39
2022-10-04T03:47:35.104Z,1014.37
2022-10-04T03:48:35.027Z,1014.37
2022-10-04T03:49:35.074Z,1014.33
2022-10-04T03:50:35.030Z,1014.35
2022-10-04T03:51:35.053Z,1014.32
2022-10-04T03:52:35.022Z,1014.29
2022-10-04T03:53:34.995Z,1014.27
2022-10-04T03:54:35.029Z,1014.31
2022-10-04T03:55:34.959Z,1014.27
2022-10-04T03:56:34.948Z,1014.24
2022-10-04T03:57:34.964Z,1014.22
2022-10-04T03:58:34.941Z,1014.23
2022-10-04T03:59:34.930Z,1014.22
2022-10-04T04:00:34.957Z,1014.26
2022-10-04T04:01:34.987Z,1014.26
2022-10-04T04:02:34.939Z,1014.23
2022-10-04T04:03:34.864Z,1014.23
2022-10-04T04:04:34.871Z,1014.22
2022-10-04T04:05:34.920Z,1014.21
2022-10-04T04:06:34.841Z,1014.20
2022-10-04T04:07:34.921Z,1014.22
2022-10-04T04:08:34.837Z,1014.27
2022-10-04T04:09:34.831Z,1014.25
2022-10-04T04:10:34.793Z,1014.33
2022-10-04T04:11:34.810Z,1014.26
2022-10-04T04:12:34.819Z,1014.27
2022-10-04T04:13:34.767Z,1014.25
2022-10-04T04:14:34.744Z,1014.27
2022-10-04T04:15:34.747Z,1014.20
2022-10-04T04:16:34.751Z,1014.22
2022-10-04T04:17:34.758Z,1014.24
2022-10-04T04:18:34.796Z,1014.25
2022-10-04T04:19:34.702Z,1014.23
2022-10-04T04:20:34.702Z,1014.21
2022-10-04T04:21:34.672Z,1014.16
2022-10-04T04:22:34.720Z,1014.10
2022-10-04T04:23:34.670Z,1014.14
2022-10-04T04:24:34.632Z,1014.12
2022-10-04T04:25:34.644Z,1014.12
2022-10-04T04:26:34.658Z,1014.11
2022-10-04T04:27:34.706Z,1014.10
2022-10-04T04:28:34.655Z,1014.07
2022-10-04T04:29:34.597Z,1014.05
2022-10-04T04:30:34.559Z,1014.08
2022-10-04T04:31:34.681Z,1014.03
2022-10-04T04:32:34.603Z,1014.05
2022-10-04T04:33:34.571Z,1014.06
2022-10-04T04:34:34.541Z,1014.05
2022-10-04T04:35:34.526Z,1014.10
2022-10-04T04:36:34.522Z,1014.09
2022-10-04T04:37:34.498Z,1014.05
2022-10-04T04:38:34.504Z,1014.06
2022-10-04T04:39:34.495Z,1014.06
2022-10-04T04:40:34.482Z,1014.01
2022-10-04T04:41:34.482Z,1014.00
2022-10-04T04:42:34.519Z,1013.95
2022-10-04T04:43:34.467Z,1014.03
2022-10-04T04:44:34.484Z,1014.01
2022-10-04T04:45:34.498Z,1014.04
2022-10-04T04:46:34.446Z,1014.02
2022-10-04T04:47:34.421Z,1014.03
2022-10-04T04:48:34.446Z,1014.02
2022-10-04T04:49:34.355Z,1014.02
2022-10-04T04:50:34.411Z,1014.05
2022-10-04T04:51:34.359Z,1014.04
2022-10-04T04:52:34.428Z,1014.08
2022-10-04T04:53:34.398Z,1014.05
2022-10-04T04:54:34.382Z,1014.08
2022-10-04T04:55:56.446Z,1014.09
2022-10-04T04:56:34.286Z,1014.15
2022-10-04T04:57:34.315Z,1014.12
2022-10-04T04:58:34.253Z,1014.19
2022-10-04T04:59:34.298Z,1014.14
2022-10-04T05:00:34.273Z,1014.11
2022-10-04T05:01:34.312Z,1014.14
2022-10-04T05:02:34.312Z,1014.14
2022-10-04T05:03:34.235Z,1014.10
2022-10-04T05:04:34.237Z,1014.12
2022-10-04T05:05:34.174Z,1014.08
2022-10-04T05:06:34.181Z,1014.09
2022-10-04T05:07:34.181Z,1014.08
2022-10-04T05:08:40.310Z,1014.09
2022-10-04T05:09:34.115Z,1014.11
2022-10-04T05:10:34.114Z,1014.11
2022-10-04T05:11:34.134Z,1014.10
2022-10-04T05:12:34.217Z,1014.10
2022-10-04T05:13:34.135Z,1014.11
2022-10-04T05:14:34.094Z,1014.08
2022-10-04T05:15:34.106Z,1014.08
2022-10-04T05:16:34.081Z,1014.07
2022-10-04T05:17:34.080Z,1014.04
2022-10-04T05:18:34.090Z,1014.08
2022-10-04T05:19:34.017Z,1014.10
2022-10-04T05:20:34.086Z,1014.07
2022-10-04T05:21:33.993Z,1014.08
2022-10-04T05:22:34.032Z,1014.07
2022-10-04T05:23:34.038Z,1014.01
2022-10-04T05:24:34.038Z,1014.04
2022-10-04T05:25:33.967Z,1014.00
2022-10-04T05:26:33.938Z,1014.01
2022-10-04T05:27:33.971Z,1014.00
2022-10-04T05:28:34.096Z,1014.02
2022-10-04T05:29:33.964Z,1014.00
2022-10-04T05:30:33.939Z,1013.98
2022-10-04T05:31:33.935Z,1014.00
2022-10-04T05:32:33.919Z,1013.97
2022-10-04T05:33:34.052Z,1013.94
2022-10-04T05:34:33.872Z,1013.94
2022-10-04T05:35:33.841Z,1013.96
2022-10-04T05:36:33.803Z,1013.96
2022-10-04T05:37:33.857Z,1013.98
2022-10-04T05:38:33.791Z,1013.92
2022-10-04T05:39:33.879Z,1013.97
2022-10-04T05:40:33.805Z,1013.98
2022-10-04T05:41:33.825Z,1013.93
2022-10-04T05:42:33.823Z,1014.00
2022-10-04T05:43:33.791Z,1013.98
2022-10-04T05:44:33.757Z,1013.94
2022-10-04T05:45:33.781Z,1014.00
2022-10-04T05:46:33.770Z,1014.00
2022-10-04T05:47:33.772Z,1014.03
2022-10-04T05:48:33.693Z,1014.13
2022-10-04T05:49:33.714Z,1014.21
2022-10-04T05:50:33.709Z,1014.16
2022-10-04T05:51:33.717Z,1014.16
2022-10-04T05:52:33.672Z,1014.13
2022-10-04T05:53:33.660Z,1014.10
2022-10-04T05:54:33.594Z,1014.05
2022-10-04T05:55:33.690Z,1014.01
2022-10-04T05:56:33.619Z,1014.01
2022-10-04T05:57:33.632Z,1014.00
2022-10-04T05:58:33.579Z,1013.99
2022-10-04T05:59:33.602Z,1014.00
2022-10-04T06:00:33.600Z,1014.01
2022-10-04T06:01:33.586Z,1014.00
2022-10-04T06:02:33.650Z,1014.02
2022-10-04T06:03:33.555Z,1014.06
2022-10-04T06:04:33.556Z,1014.05
2022-10-04T06:05:33.481Z,1014.06
2022-10-04T06:06:33.508Z,1014.12
2022-10-04T06:07:33.579Z,1014.10
2022-10-04T06:08:33.496Z,1014.14
2022-10-04T06:09:33.516Z,1014.10
2022-10-04T06:10:33.476Z,1014.15
2022-10-04T06:11:33.487Z,1014.12
2022-10-04T06:12:33.505Z,1014.13
2022-10-04T06:13:33.403Z,1014.15
2022-10-04T06:14:33.424Z,1014.15
2022-10-04T06:15:33.364Z,1014.12
2022-10-04T06:16:33.413Z,1014.11
2022-10-04T06:17:33.407Z,1014.10
2022-10-04T06:18:33.360Z,1014.06
2022-10-04T06:19:33.342Z,1014.08
2022-10-04T06:20:33.342Z,1014.10
2022-10-04T06:21:33.339Z,1014.07
2022-10-04T06:22:33.356Z,1014.07
2022-10-04T06:23:33.334Z,1014.07
2022-10-04T06:24:33.323Z,1014.07
2022-10-04T06:25:33.343Z,1014.10
2022-10-04T06:26:33.300Z,1014.06
2022-10-04T06:27:33.403Z,1014.09
2022-10-04T06:28:33.395Z,1014.04
2022-10-04T06:29:33.339Z,1014.01
2022-10-04T06:30:33.265Z,1014.02
2022-10-04T06:31:33.309Z,1013.98
2022-10-04T06:32:33.253Z,1014.00
2022-10-04T06:33:33.195Z,1013.95
2022-10-04T06:34:33.203Z,1013.93
2022-10-04T06:35:33.169Z,1013.93
2022-10-04T06:36:33.277Z,1013.95
2022-10-04T06:37:33.144Z,1013.93
2022-10-04T06:38:33.197Z,1013.90
2022-10-04T06:39:33.108Z,1013.92
2022-10-04T06:40:33.173Z,1013.91
2022-10-04T06:41:33.118Z,1013.90
2022-10-04T06:42:33.259Z,1013.89
2022-10-04T06:43:33.052Z,1013.89
2022-10-04T06:44:33.096Z,1013.93
2022-10-04T06:45:33.062Z,1013.90
2022-10-04T06:46:33.050Z,1013.89
2022-10-04T06:47:32.999Z,1013.91
2022-10-04T06:48:33.108Z,1013.86
2022-10-04T06:49:33.010Z,1013.92
2022-10-04T06:50:32.998Z,1013.90
2022-10-04T06:51:32.990Z,1013.88
2022-10-04T06:52:33.031Z,1013.89
2022-10-04T06:53:32.995Z,1013.90
2022-10-04T06:54:32.941Z,1013.92
2022-10-04T06:55:32.973Z,1013.91
2022-10-04T06:56:32.939Z,1013.97
2022-10-04T06:57:32.990Z,1013.92
2022-10-04T06:58:32.930Z,1013.95
2022-10-04T06:59:32.877Z,1013.99
2022-10-04T07:00:32.896Z,1013.99
2022-10-04T07:01:32.976Z,1013.98
2022-10-04T07:02:33.020Z,1013.99
2022-10-04T07:03:32.883Z,1014.05
2022-10-04T07:04:55.838Z,1014.00
2022-10-04T07:05:32.829Z,1014.05
2022-10-04T07:06:32.803Z,1014.06
2022-10-04T07:07:32.844Z,1014.03
2022-10-04T07:08:32.812Z,1014.08
2022-10-04T07:09:32.778Z,1014.00
2022-10-04T07:10:32.769Z,1014.04
2022-10-04T07:11:32.780Z,1014.05
2022-10-04T07:12:32.778Z,1014.09
2022-10-04T07:13:32.796Z,1014.11
2022-10-04T07:14:32.738Z,1014.12
2022-10-04T07:15:32.720Z,1014.10
2022-10-04T07:16:32.732Z,1014.15
2022-10-04T07:17:32.675Z,1014.13
2022-10-04T07:18:32.761Z,1014.14
2022-10-04T07:19:32.701Z,1014.16
2022-10-04T07:20:32.682Z,1014.23
2022-10-04T07:21:32.692Z,1014.22
2022-10-04T07:22:32.674Z,1014.22
2022-10-04T07:23:32.675Z,1014.23
2022-10-04T07:24:32.617Z,1014.19
2022-10-04T07:25:32.599Z,1014.16
2022-10-04T07:26:32.619Z,1014.21
2022-10-04T07:27:32.564Z,1014.20
2022-10-04T07:28:32.680Z,1014.19
2022-10-04T07:29:32.582Z,1014.22
2022-10-04T07:30:32.579Z,1014.24
2022-10-04T07:31:32.571Z,1014.19
2022-10-04T07:32:32.505Z,1014.25
2022-10-04T07:33:32.532Z,1014.22
2022-10-04T07:34:32.559Z,1014.23
2022-10-04T07:35:32.552Z,1014.22
2022-10-04T07:36:32.451Z,1014.21
2022-10-04T07:37:32.480Z,1014.21
2022-10-04T07:38:32.552Z,1014.19
2022-10-04T07:39:32.454Z,1014.20
2022-10-04T07:40:32.458Z,1014.20
2022-10-04T07:41:32.491Z,1014.23
2022-10-04T07:42:32.414Z,1014.21
2022-10-04T07:43:32.442Z,1014.25
2022-10-04T07:44:32.422Z,1014.28
2022-10-04T07:45:32.393Z,1014.26
2022-10-04T07:46:32.444Z,1014.30
2022-10-04T07:47:32.350Z,1014.28
2022-10-04T07:48:32.409Z,1014.30
2022-10-04T07:49:32.293Z,1014.32
2022-10-04T07:50:32.363Z,1014.32
2022-10-04T07:51:32.436Z,1014.31
2022-10-04T07:52:32.289Z,1014.34
2022-10-04T07:53:32.300Z,1014.35
2022-10-04T07:54:32.267Z,1014.32
2022-10-04T07:55:32.303Z,1014.32
2022-10-04T07:56:32.210Z,1014.31
2022-10-04T07:57:32.201Z,1014.29
2022-10-04T07:58:32.255Z,1014.28
2022-10-04T07:59:32.244Z,1014.29
2022-10-04T08:00:32.271Z,1014.30
2022-10-04T08:01:32.337Z,1014.34
2022-10-04T08:02:32.296Z,1014.31
2022-10-04T08:03:32.280Z,1014.28
2022-10-04T08:04:32.219Z,1014.28
2022-10-04T08:05:32.132Z,1014.25
2022-10-04T08:06:32.211Z,1014.25
2022-10-04T08:07:32.189Z,1014.26
2022-10-04T08:08:32.186Z,1014.28
2022-10-04T08:09:32.093Z,1014.29
2022-10-04T08:10:32.074Z,1014.28
2022-10-04T08:11:32.139Z,1014.26
2022-10-04T08:12:32.159Z,1014.31
2022-10-04T08:13:32.214Z,1014.34
2022-10-04T08:14:32.055Z,1014.35
2022-10-04T08:15:32.088Z,1014.34
2022-10-04T08:16:32.004Z,1014.38
2022-10-04T08:17:32.008Z,1014.30
2022-10-04T08:18:32.011Z,1014.32
2022-10-04T08:19:32.015Z,1014.33
2022-10-04T08:20:32.067Z,1014.34
2022-10-04T08:21:31.951Z,1014.34
2022-10-04T08:22:31.968Z,1014.33
2022-10-04T08:23:31.941Z,1014.31
2022-10-04T08:24:31.894Z,1014.31
2022-10-04T08:25:31.945Z,1014.31
2022-10-04T08:26:31.981Z,1014.35
2022-10-04T08:27:31.883Z,1014.30
2022-10-04T08:28:31.990Z,1014.34
2022-10-04T08:29:31.866Z,1014.31
2022-10-04T08:30:31.833Z,1014.23
2022-10-04T08:31:31.948Z,1014.24
2022-10-04T08:32:31.852Z,1014.30
2022-10-04T08:33:32.043Z,1014.25
2022-10-04T08:34:31.794Z,1014.19
2022-10-04T08:35:31.782Z,1014.17
2022-10-04T08:36:31.811Z,1014.20
2022-10-04T08:37:31.938Z,1014.17
2022-10-04T08:38:31.794Z,1014.16
2022-10-04T08:39:31.824Z,1014.17
2022-10-04T08:40:31.753Z,1014.16
2022-10-04T08:41:31.737Z,1014.15
2022-10-04T08:42:31.703Z,1014.12
2022-10-04T08:43:31.719Z,1014.12
2022-10-04T08:44:31.708Z,1014.10
2022-10-04T08:45:31.699Z,1014.14
2022-10-04T08:46:31.741Z,1014.09
2022-10-04T08:47:31.692Z,1014.07
2022-10-04T08:48:31.711Z,1014.08
2022-10-04T08:49:31.607Z,1014.12
2022-10-04T08:50:31.699Z,1014.07
2022-10-04T08:51:31.609Z,1014.07
2022-10-04T08:52:31.614Z,1014.05
2022-10-04T08:53:31.646Z,1014.05
2022-10-04T08:54:31.592Z,1014.04
2022-10-04T08:55:31.568Z,1013.99
2022-10-04T08:56:31.624Z,1013.97
2022-10-04T08:57:31.564Z,1013.95
2022-10-04T08:58:31.600Z,1013.89
2022-10-04T08:59:31.505Z,1013.88
2022-10-04T09:00:31.500Z,1013.87
2022-10-04T09:01:31.558Z,1013.82
2022-10-04T09:02:31.508Z,1013.86
2022-10-04T09:03:31.601Z,1013.87
2022-10-04T09:04:31.455Z,1013.85
2022-10-04T09:05:31.516Z,1013.89
2022-10-04T09:06:31.431Z,1013.86
2022-10-04T09:07:31.392Z,1013.86
2022-10-04T09:08:31.538Z,1013.85
2022-10-04T09:09:31.397Z,1013.84
2022-10-04T09:10:31.410Z,1013.88
2022-10-04T09:11:31.376Z,1013.90
2022-10-04T09:12:31.391Z,1013.86
2022-10-04T09:13:31.409Z,1013.83
2022-10-04T09:14:31.359Z,1013.83
2022-10-04T09:15:31.582Z,1013.80
2022-10-04T09:16:31.376Z,1013.75
2022-10-04T09:17:31.290Z,1013.72
2022-10-04T09:18:31.303Z,1013.72
2022-10-04T09:19:31.395Z,1013.69
2022-10-04T09:20:38.897Z,1013.69
2022-10-04T09:21:31.292Z,1013.66
2022-10-04T09:22:31.257Z,1013.72
2022-10-04T09:23:31.352Z,1013.71
2022-10-04T09:24:31.376Z,1013.69
2022-10-04T09:25:31.215Z,1013.75
2022-10-04T09:26:31.354Z,1013.72
2022-10-04T09:27:53.618Z,1013.71
2022-10-04T09:28:31.263Z,1013.68
2022-10-04T09:29:31.187Z,1013.65
2022-10-04T09:30:31.136Z,1013.64
2022-10-04T09:31:31.219Z,1013.68
2022-10-04T09:32:31.122Z,1013.66
2022-10-04T09:33:31.213Z,1013.70
2022-10-04T09:34:36.437Z,1013.69
2022-10-04T09:35:31.155Z,1013.73
2022-10-04T09:36:31.112Z,1013.69
2022-10-04T09:37:31.088Z,1013.72
2022-10-04T09:38:31.059Z,1013.72
2022-10-04T09:39:31.431Z,1013.71
2022-10-04T09:40:31.099Z,1013.70
2022-10-04T09:41:31.050Z,1013.65
2022-10-04T09:42:31.063Z,1013.61
2022-10-04T09:43:31.032Z,1013.61
2022-10-04T09:44:30.996Z,1013.61
2022-10-04T09:45:31.025Z,1013.66
2022-10-04T09:46:31.046Z,1013.68
2022-10-04T09:47:30.973Z,1013.66
2022-10-04T09:48:31.046Z,1013.63
2022-10-04T09:49:30.923Z,1013.66
2022-10-04T09:50:30.918Z,1013.68
2022-10-04T09:51:30.907Z,1013.69
2022-10-04T09:52:31.094Z,1013.61
2022-10-04T09:53:31.110Z,1013.60
2022-10-04T09:54:30.940Z,1013.56
2022-10-04T09:55:30.910Z,1013.53
2022-10-04T09:56:30.903Z,1013.56
2022-10-04T09:57:30.861Z,1013.57
2022-10-04T09:58:30.852Z,1013.55
2022-10-04T09:59:30.825Z,1013.54
2022-10-04T10:00:30.826Z,1013.51
2022-10-04T10:01:30.847Z,1013.51
2022-10-04T10:02:30.816Z,1013.49
2022-10-04T10:03:30.816Z,1013.49
2022-10-04T10:04:30.789Z,1013.52
2022-10-04T10:05:30.787Z,1013.53
2022-10-04T10:06:30.809Z,1013.55
2022-10-04T10:07:30.750Z,1013.49
2022-10-04T10:08:31.171Z,1013.47
2022-10-04T10:09:30.834Z,1013.49
2022-10-04T10:10:30.896Z,1013.49
2022-10-04T10:11:30.684Z,1013.47
2022-10-04T10:12:30.677Z,1013.51
2022-10-04T10:13:32.140Z,1013.51
2022-10-04T10:14:30.661Z,1013.47
2022-10-04T10:15:30.638Z,1013.49
2022-10-04T10:16:30.716Z,1013.52
2022-10-04T10:17:30.775Z,1013.50
2022-10-04T10:18:30.636Z,1013.49
2022-10-04T10:19:30.591Z,1013.47
2022-10-04T10:20:30.560Z,1013.48
2022-10-04T10:21:30.585Z,1013.51
2022-10-04T10:22:30.572Z,1013.43
2022-10-04T10:23:30.574Z,1013.44
2022-10-04T10:24:30.580Z,1013.43
2022-10-04T10:25:30.598Z,1013.42
2022-10-04T10:26:30.510Z,1013.44
2022-10-04T10:27:30.490Z,1013.37
2022-10-04T10:28:30.604Z,1013.39
2022-10-04T10:29:30.496Z,1013.37
2022-10-04T10:30:30.535Z,1013.33
2022-10-04T10:31:30.521Z,1013.35
2022-10-04T10:32:30.437Z,1013.36
2022-10-04T10:33:30.473Z,1013.34
2022-10-04T10:34:30.430Z,1013.36
2022-10-04T10:35:30.428Z,1013.33
2022-10-04T10:36:30.430Z,1013.36
2022-10-04T10:37:30.422Z,1013.40
2022-10-04T10:38:30.450Z,1013.41
2022-10-04T10:39:30.383Z,1013.43
2022-10-04T10:40:30.358Z,1013.43
2022-10-04T10:41:30.343Z,1013.42
2022-10-04T10:42:30.339Z,1013.41
2022-10-04T10:43:30.341Z,1013.39
2022-10-04T10:44:30.348Z,1013.45
2022-10-04T10:45:30.304Z,1013.42
2022-10-04T10:46:30.350Z,1013.47
2022-10-04T10:47:30.262Z,1013.44
2022-10-04T10:48:30.436Z,1013.41
2022-10-04T10:49:30.255Z,1013.43
2022-10-04T10:50:30.247Z,1013.49
2022-10-04T10:51:30.228Z,1013.47
2022-10-04T10:52:30.342Z,1013.48
2022-10-04T10:53:30.218Z,1013.48
2022-10-04T10:54:30.195Z,1013.48
2022-10-04T10:55:30.185Z,1013.48
2022-10-04T10:56:30.471Z,1013.47
2022-10-04T10:57:30.211Z,1013.44
2022-10-04T10:58:30.181Z,1013.44
2022-10-04T10:59:30.210Z,1013.43
2022-10-04T11:00:30.199Z,1013.41
2022-10-04T11:01:30.273Z,1013.39
2022-10-04T11:02:48.288Z,1013.39
2022-10-04T11:03:32.391Z,1013.35
2022-10-04T11:04:30.067Z,1013.35
2022-10-04T11:05:30.082Z,1013.31
2022-10-04T11:06:30.062Z,1013.33
2022-10-04T11:07:30.073Z,1013.30
2022-10-04T11:08:30.076Z,1013.32
2022-10-04T11:09:30.140Z,1013.29
2022-10-04T11:10:30.007Z,1013.27
2022-10-04T11:11:30.042Z,1013.28
2022-10-04T11:12:30.033Z,1013.26
2022-10-04T11:13:30.109Z,1013.27
2022-10-04T11:14:30.011Z,1013.28
2022-10-04T11:15:29.957Z,1013.24
2022-10-04T11:16:29.956Z,1013.21
2022-10-04T11:17:29.959Z,1013.18
2022-10-04T11:18:29.960Z,1013.19
2022-10-04T11:19:29.906Z,1013.16
2022-10-04T11:20:29.891Z,1013.15
2022-10-04T11:21:29.932Z,1013.15
2022-10-04T11:22:32.704Z,1013.13
2022-10-04T11:23:29.872Z,1013.13
2022-10-04T11:24:29.866Z,1013.13
2022-10-04T11:25:29.874Z,1013.14
2022-10-04T11:26:29.818Z,1013.12
2022-10-04T11:27:29.839Z,1013.08
2022-10-04T11:28:29.912Z,1013.02
2022-10-04T11:29:29.805Z,1013.02
2022-10-04T11:30:29.824Z,1013.00
2022-10-04T11:31:29.888Z,1012.96
2022-10-04T11:32:29.777Z,1012.97
2022-10-04T11:33:29.819Z,1012.96
2022-10-04T11:34:29.751Z,1012.92
2022-10-04T11:35:29.748Z,1012.91
2022-10-04T11:36:29.710Z,1012.90
2022-10-04T11:37:29.729Z,1012.83
2022-10-04T11:38:29.714Z,1012.82
2022-10-04T11:39:29.711Z,1012.76
2022-10-04T11:40:29.724Z,1012.84
2022-10-04T11:41:29.654Z,1012.83
2022-10-04T11:42:29.640Z,1012.77
2022-10-04T11:43:29.651Z,1012.82
2022-10-04T11:44:29.608Z,1012.79
2022-10-04T11:45:29.660Z,1012.77
2022-10-04T11:46:29.656Z,1012.81
2022-10-04T11:47:29.596Z,1012.80
2022-10-04T11:48:29.586Z,1012.85
2022-10-04T11:49:29.555Z,1012.83
2022-10-04T11:50:29.540Z,1012.84
2022-10-04T11:51:29.562Z,1012.77
2022-10-04T11:52:29.546Z,1012.76
2022-10-04T11:53:29.597Z,1012.74
2022-10-04T11:54:29.500Z,1012.76
2022-10-04T11:55:29.504Z,1012.74
2022-10-04T11:56:29.481Z,1012.74
2022-10-04T11:57:29.513Z,1012.70
2022-10-04T11:58:29.482Z,1012.70
2022-10-04T11:59:29.449Z,1012.77
2022-10-04T12:00:29.448Z,1012.73
2022-10-04T12:01:29.484Z,1012.75
2022-10-04T12:02:29.407Z,1012.74
2022-10-04T12:03:29.474Z,1012.79
2022-10-04T12:04:29.467Z,1012.74
2022-10-04T12:05:29.394Z,1012.74